createdAt,value
2019-01-17T00:00:42.144Z,99596.16
2019-01-17T00:03:20.299Z,99596.89
2019-01-17T00:06:05.647Z,99581.68
2019-01-17T00:08:55.510Z,99591.20
2019-01-17T00:11:38.189Z,99592.99
2019-01-17T00:14:19.678Z,99588.92
2019-01-17T00:17:13.458Z,99561.44
2019-01-17T00:20:15.777Z,99559.90
2019-01-17T00:23:08.376Z,99536.95
2019-01-17T00:25:53.572Z,99541.70
2019-01-17T00:28:39.204Z,99553.94
2019-01-17T00:31:31.163Z,99542.79
2019-01-17T00:34:16.490Z,99539.91
2019-01-17T00:37:03.276Z,99546.69
2019-01-17T00:39:45.698Z,99544.66
2019-01-17T00:42:30.898Z,99547.90
2019-01-17T00:45:26.886Z,99542.08
2019-01-17T00:48:12.029Z,99548.72
2019-01-17T00:51:04.480Z,99543.13
2019-01-17T00:53:49.448Z,99535.86
2019-01-17T00:56:54.442Z,99543.25
2019-01-17T00:59:39.663Z,99542.05
2019-01-17T01:02:26.492Z,99549.91
2019-01-17T01:05:12.062Z,99537.91
2019-01-17T01:07:57.631Z,99545.02
2019-01-17T01:10:42.870Z,99546.68
2019-01-17T01:13:27.866Z,99530.86
2019-01-17T01:16:23.417Z,99542.63
2019-01-17T01:19:02.155Z,99551.81
2019-01-17T01:21:42.323Z,99539.44
2019-01-17T01:24:32.192Z,99552.05
2019-01-17T01:27:14.394Z,99547.88
2019-01-17T01:30:06.947Z,99553.71
2019-01-17T01:32:53.734Z,99548.22
2019-01-17T01:35:43.305Z,99555.00
2019-01-17T01:38:30.380Z,99555.62
2019-01-17T01:41:17.168Z,99552.88
2019-01-17T01:43:57.254Z,99551.83
2019-01-17T01:46:44.341Z,99546.81
2019-01-17T01:49:39.866Z,99549.44
2019-01-17T01:52:35.944Z,99561.06
2019-01-17T01:55:03.879Z,99555.87
2019-01-17T01:57:30.979Z,99562.66
2019-01-17T01:59:58.175Z,99566.22
2019-01-17T02:02:25.277Z,99562.88
2019-01-17T02:04:52.447Z,99558.59
2019-01-17T02:07:19.658Z,99559.31
2019-01-17T02:09:46.798Z,99565.15
2019-01-17T02:12:13.994Z,99556.47
2019-01-17T02:14:41.198Z,99555.26
2019-01-17T02:17:08.730Z,99551.21
2019-01-17T02:19:35.905Z,99553.23
2019-01-17T02:22:03.116Z,99556.53
2019-01-17T02:24:30.568Z,99552.84
2019-01-17T02:26:57.768Z,99552.75
2019-01-17T02:29:25.277Z,99558.82
2019-01-17T02:31:52.410Z,99555.37
2019-01-17T02:34:19.568Z,99554.68
2019-01-17T02:36:47.076Z,99561.44
2019-01-17T02:39:14.418Z,99553.56
2019-01-17T02:41:41.573Z,99559.52
2019-01-17T02:44:08.686Z,99549.98
2019-01-17T02:46:35.848Z,99553.44
2019-01-17T02:49:03.003Z,99551.92
2019-01-17T02:51:30.199Z,99559.35
2019-01-17T02:53:57.389Z,99554.38
2019-01-17T02:56:24.578Z,99558.69
2019-01-17T02:58:51.777Z,99551.92
2019-01-17T03:01:18.974Z,99547.52
2019-01-17T03:03:46.132Z,99554.88
2019-01-17T03:06:13.392Z,99551.08
2019-01-17T03:08:40.539Z,99557.05
2019-01-17T03:11:07.743Z,99555.61
2019-01-17T03:13:34.915Z,99552.94
2019-01-17T03:16:02.155Z,99551.91
2019-01-17T03:18:29.520Z,99556.79
2019-01-17T03:20:56.718Z,99550.31
2019-01-17T03:23:23.864Z,99545.69
2019-01-17T03:25:50.958Z,99542.96
2019-01-17T03:28:18.138Z,99538.91
2019-01-17T03:30:45.326Z,99531.05
2019-01-17T03:33:12.511Z,99542.98
2019-01-17T03:35:39.605Z,99524.64
2019-01-17T03:38:06.804Z,99522.60
2019-01-17T03:40:33.969Z,99537.27
2019-01-17T03:43:01.216Z,99535.70
2019-01-17T03:45:28.371Z,99528.35
2019-01-17T03:47:55.452Z,99524.38
2019-01-17T03:50:22.650Z,99525.23
2019-01-17T03:52:49.804Z,99530.36
2019-01-17T03:55:19.465Z,99517.71
2019-01-17T03:57:46.679Z,99531.52
2019-01-17T04:00:16.721Z,99516.80
2019-01-17T04:02:44.175Z,99516.68
2019-01-17T04:05:11.486Z,99506.93
2019-01-17T04:07:38.551Z,99508.92
2019-01-17T04:10:07.290Z,99513.95
2019-01-17T04:12:34.396Z,99504.64
2019-01-17T04:15:01.580Z,99516.68
2019-01-17T04:17:28.862Z,99514.74
2019-01-17T04:19:56.073Z,99511.91
2019-01-17T04:22:23.239Z,99507.66
2019-01-17T04:24:57.107Z,99509.81
2019-01-17T04:27:19.631Z,99506.02
2019-01-17T04:29:46.803Z,99494.36
2019-01-17T04:32:14.020Z,99498.47
2019-01-17T04:34:41.243Z,99488.13
2019-01-17T04:37:08.444Z,99489.70
2019-01-17T04:39:35.612Z,99493.05
2019-01-17T04:42:02.830Z,99493.14
2019-01-17T04:44:30.326Z,99496.98
2019-01-17T04:46:57.534Z,99498.28
2019-01-17T04:49:26.557Z,99483.44
2019-01-17T04:51:53.754Z,99495.78
2019-01-17T04:54:20.831Z,99489.59
2019-01-17T04:56:47.976Z,99489.84
2019-01-17T04:59:15.145Z,99489.62
2019-01-17T05:01:42.331Z,99488.43
2019-01-17T05:04:09.832Z,99485.32
2019-01-17T05:06:36.990Z,99482.23
2019-01-17T05:09:06.408Z,99485.80
2019-01-17T05:11:33.628Z,99486.30
2019-01-17T05:14:00.815Z,99483.17
2019-01-17T05:16:27.992Z,99486.52
2019-01-17T05:18:55.187Z,99490.91
2019-01-17T05:21:22.348Z,99478.55
2019-01-17T05:23:49.549Z,99482.00
2019-01-17T05:26:16.762Z,99478.45
2019-01-17T05:28:43.984Z,99482.11
2019-01-17T05:31:11.379Z,99474.98
2019-01-17T05:33:38.878Z,99479.03
2019-01-17T05:36:06.036Z,99486.77
2019-01-17T05:38:33.219Z,99481.05
2019-01-17T05:41:00.590Z,99477.84
2019-01-17T05:43:27.753Z,99480.82
2019-01-17T05:45:54.923Z,99476.17
2019-01-17T05:48:22.125Z,99467.63
2019-01-17T05:50:49.170Z,99477.38
2019-01-17T05:53:16.324Z,99482.95
2019-01-17T05:55:43.547Z,99484.27
2019-01-17T05:58:10.714Z,99479.52
2019-01-17T06:00:37.895Z,99477.00
2019-01-17T06:03:05.085Z,99481.66
2019-01-17T06:05:32.134Z,99484.86
2019-01-17T06:07:59.338Z,99475.47
2019-01-17T06:10:26.527Z,99477.27
2019-01-17T06:12:54.211Z,99481.76
2019-01-17T06:15:22.859Z,99481.05
2019-01-17T06:17:50.111Z,99478.81
2019-01-17T06:20:17.399Z,99468.22
2019-01-17T06:22:44.600Z,99472.00
2019-01-17T06:25:12.060Z,99482.14
2019-01-17T06:27:39.236Z,99475.72
2019-01-17T06:30:08.530Z,99470.24
2019-01-17T06:32:35.764Z,99472.26
2019-01-17T06:35:04.263Z,99464.42
2019-01-17T06:37:31.472Z,99461.78
2019-01-17T06:39:58.667Z,99462.39
2019-01-17T06:42:25.873Z,99461.80
2019-01-17T06:44:53.060Z,99462.40
2019-01-17T06:47:20.258Z,99461.44
2019-01-17T06:49:47.408Z,99455.26
2019-01-17T06:52:14.566Z,99459.64
2019-01-17T06:54:41.670Z,99458.58
2019-01-17T06:57:08.985Z,99455.61
2019-01-17T06:59:36.162Z,99459.52
2019-01-17T07:02:03.464Z,99454.77
2019-01-17T07:04:30.908Z,99455.02
2019-01-17T07:06:58.071Z,99453.47
2019-01-17T07:09:25.306Z,99457.14
2019-01-17T07:11:52.728Z,99450.00
2019-01-17T07:14:19.909Z,99447.28
2019-01-17T07:16:47.128Z,99443.94
2019-01-17T07:19:14.304Z,99455.36
2019-01-17T07:21:41.504Z,99453.71
2019-01-17T07:24:08.781Z,99445.27
2019-01-17T07:26:35.956Z,99454.53
2019-01-17T07:29:03.376Z,99450.39
2019-01-17T07:31:30.563Z,99452.06
2019-01-17T07:33:57.741Z,99444.67
2019-01-17T07:36:24.945Z,99439.78
2019-01-17T07:38:52.133Z,99441.69
2019-01-17T07:41:19.525Z,99444.89
2019-01-17T07:43:46.733Z,99445.84
2019-01-17T07:46:14.233Z,99440.71
2019-01-17T07:48:41.461Z,99432.40
2019-01-17T07:51:08.584Z,99426.67
2019-01-17T07:53:35.802Z,99438.19
2019-01-17T07:56:03.500Z,99438.85
2019-01-17T07:58:30.698Z,99448.10
2019-01-17T08:00:57.898Z,99453.84
2019-01-17T08:03:25.071Z,99463.58
2019-01-17T08:05:52.222Z,99467.60
2019-01-17T08:08:19.417Z,99461.38
2019-01-17T08:10:46.585Z,99444.47
2019-01-17T08:13:14.080Z,99460.97
2019-01-17T08:15:41.307Z,99468.09
2019-01-17T08:18:08.408Z,99465.83
2019-01-17T08:20:35.777Z,99463.87
2019-01-17T08:23:02.972Z,99461.94
2019-01-17T08:25:30.130Z,99458.81
2019-01-17T08:27:57.319Z,99458.84
2019-01-17T08:30:26.374Z,99449.28
2019-01-17T08:32:53.556Z,99449.33
2019-01-17T08:35:20.867Z,99450.88
2019-01-17T08:37:48.066Z,99450.02
2019-01-17T08:40:20.395Z,99450.47
2019-01-17T08:42:46.981Z,99457.78
2019-01-17T08:45:14.290Z,99467.98
2019-01-17T08:47:41.637Z,99480.83
2019-01-17T08:50:10.024Z,99485.33
2019-01-17T08:52:37.508Z,99496.22
2019-01-17T08:55:04.872Z,99484.97
2019-01-17T08:57:32.033Z,99481.66
2019-01-17T08:59:59.166Z,99491.46
2019-01-17T09:02:26.354Z,99478.70
2019-01-17T09:04:53.728Z,99476.14
2019-01-17T09:07:20.949Z,99470.23
2019-01-17T09:09:48.125Z,99473.48
2019-01-17T09:12:15.316Z,99481.21
2019-01-17T09:14:42.520Z,99486.56
2019-01-17T09:17:09.709Z,99483.83
2019-01-17T09:19:36.871Z,99484.97
2019-01-17T09:22:04.084Z,99486.21
2019-01-17T09:24:31.520Z,99491.81
2019-01-17T09:26:58.736Z,99496.72
2019-01-17T09:29:25.952Z,99496.56
2019-01-17T09:31:53.150Z,99503.22
2019-01-17T09:34:20.323Z,99500.25
2019-01-17T09:36:47.536Z,99500.03
2019-01-17T09:39:14.707Z,99503.98
2019-01-17T09:41:41.803Z,99496.07
2019-01-17T09:44:08.989Z,99499.61
2019-01-17T09:46:36.081Z,99501.73
2019-01-17T09:49:03.456Z,99498.36
2019-01-17T09:51:30.681Z,99502.00
2019-01-17T09:53:57.796Z,99499.58
2019-01-17T09:56:24.997Z,99501.19
2019-01-17T09:58:54.290Z,99500.20
2019-01-17T10:01:21.503Z,99508.02
2019-01-17T10:03:48.772Z,99516.48
2019-01-17T10:06:15.960Z,99514.92
2019-01-17T10:08:43.121Z,99517.56
2019-01-17T10:11:10.325Z,99518.00
2019-01-17T10:13:37.513Z,99518.56
2019-01-17T10:16:36.022Z,99515.05
2019-01-17T10:19:45.252Z,99519.99
2019-01-17T10:22:33.901Z,99527.31
2019-01-17T10:25:24.355Z,99524.12
2019-01-17T10:28:45.661Z,99519.74
2019-01-17T10:32:06.924Z,99508.14
2019-01-17T10:35:06.938Z,99513.67
2019-01-17T10:38:04.438Z,99503.47
2019-01-17T10:41:13.694Z,99487.72
2019-01-17T10:44:30.318Z,99486.47
2019-01-17T10:47:33.766Z,99493.91
2019-01-17T10:50:12.113Z,99493.00
2019-01-17T10:53:21.729Z,99493.38
2019-01-17T10:56:45.727Z,99486.30
2019-01-17T10:59:27.195Z,99471.16
2019-01-17T11:02:42.088Z,99477.41
2019-01-17T11:05:50.232Z,99470.61
2019-01-17T11:08:44.962Z,99449.23
2019-01-17T11:11:37.900Z,99459.98
2019-01-17T11:14:22.335Z,99460.21
2019-01-17T11:17:14.969Z,99446.94
2019-01-17T11:20:18.224Z,99443.84
2019-01-17T11:23:22.795Z,99437.17
2019-01-17T11:26:01.974Z,99431.80
2019-01-17T11:28:47.628Z,99430.18
2019-01-17T11:32:02.256Z,99414.92
2019-01-17T11:35:16.175Z,99419.34
2019-01-17T11:38:27.074Z,99418.10
2019-01-17T11:41:35.427Z,99411.68
2019-01-17T11:44:43.128Z,99399.94
2019-01-17T11:47:24.772Z,99402.17
2019-01-17T11:50:29.663Z,99389.68
2019-01-17T11:53:53.934Z,99397.05
2019-01-17T11:56:53.164Z,99382.33
2019-01-17T11:59:34.665Z,99387.03
2019-01-17T12:02:39.086Z,99379.89
2019-01-17T12:05:02.892Z,99367.38
2019-01-17T12:07:30.000Z,99351.41
2019-01-17T12:09:57.350Z,99359.25
2019-01-17T12:12:25.128Z,99364.19
2019-01-17T12:14:54.707Z,99353.75
2019-01-17T12:17:22.214Z,99355.59
2019-01-17T12:19:49.391Z,99365.24
2019-01-17T12:22:16.624Z,99354.47
2019-01-17T12:24:43.809Z,99357.18
2019-01-17T12:27:11.030Z,99359.66
2019-01-17T12:29:38.241Z,99358.40
2019-01-17T12:32:05.468Z,99352.87
2019-01-17T12:34:32.642Z,99360.67
2019-01-17T12:36:59.843Z,99355.85
2019-01-17T12:39:27.044Z,99351.75
2019-01-17T12:41:54.261Z,99348.99
2019-01-17T12:44:21.327Z,99330.81
2019-01-17T12:46:48.568Z,99344.31
2019-01-17T12:49:15.645Z,99330.22
2019-01-17T12:51:42.847Z,99339.14
2019-01-17T12:54:09.959Z,99339.20
2019-01-17T12:56:37.449Z,99331.80
2019-01-17T12:59:04.661Z,99335.09
2019-01-17T13:01:32.172Z,99328.86
2019-01-17T13:03:59.353Z,99341.78
2019-01-17T13:06:26.577Z,99326.95
2019-01-17T13:08:53.815Z,99344.09
2019-01-17T13:11:20.979Z,99345.34
2019-01-17T13:13:49.073Z,99343.50
2019-01-17T13:16:16.278Z,99347.13
2019-01-17T13:18:43.429Z,99345.89
2019-01-17T13:21:10.822Z,99360.16
2019-01-17T13:23:38.137Z,99345.97
2019-01-17T13:26:05.245Z,99361.66
2019-01-17T13:28:32.431Z,99353.31
2019-01-17T13:30:59.555Z,99360.34
2019-01-17T13:33:26.720Z,99354.79
2019-01-17T13:35:53.818Z,99354.24
2019-01-17T13:38:21.036Z,99344.36
2019-01-17T13:40:48.546Z,99347.98
2019-01-17T13:43:15.716Z,99350.11
2019-01-17T13:45:42.950Z,99343.88
2019-01-17T13:48:10.114Z,99350.88
2019-01-17T13:50:37.213Z,99355.19
2019-01-17T13:53:04.519Z,99354.43
2019-01-17T13:55:31.915Z,99356.98
2019-01-17T13:57:59.132Z,99354.98
2019-01-17T14:00:26.978Z,99349.96
2019-01-17T14:02:54.084Z,99351.19
2019-01-17T14:05:21.283Z,99344.39
2019-01-17T14:07:48.903Z,99342.41
2019-01-17T14:10:16.088Z,99349.06
2019-01-17T14:12:43.188Z,99344.95
2019-01-17T14:15:19.215Z,99339.89
2019-01-17T14:17:46.316Z,99341.76
2019-01-17T14:20:13.616Z,99345.48
2019-01-17T14:22:40.880Z,99351.72
2019-01-17T14:25:08.219Z,99348.34
2019-01-17T14:27:35.412Z,99368.66
2019-01-17T14:30:04.159Z,99375.95
2019-01-17T14:32:31.371Z,99379.23
2019-01-17T14:34:58.909Z,99377.09
2019-01-17T14:37:26.191Z,99366.03
2019-01-17T14:39:53.391Z,99365.02
2019-01-17T14:42:20.585Z,99356.72
2019-01-17T14:44:47.855Z,99372.25
2019-01-17T14:47:15.052Z,99373.71
2019-01-17T14:49:42.223Z,99360.18
2019-01-17T14:52:09.420Z,99371.64
2019-01-17T14:54:36.533Z,99369.69
2019-01-17T14:57:03.946Z,99388.98
2019-01-17T14:59:31.370Z,99385.42
2019-01-17T15:01:58.548Z,99393.02
2019-01-17T15:04:25.750Z,99402.62
2019-01-17T15:06:53.058Z,99499.38
2019-01-17T15:09:20.560Z,99485.70
2019-01-17T15:11:47.766Z,99494.09
2019-01-17T15:14:14.974Z,99493.40
2019-01-17T15:16:42.184Z,99492.95
2019-01-17T15:19:27.911Z,99490.08
2019-01-17T15:22:13.542Z,99506.27
2019-01-17T15:24:58.950Z,99497.70
2019-01-17T15:27:44.399Z,99487.22
2019-01-17T15:30:14.676Z,99500.81
2019-01-17T15:32:41.887Z,99507.52
2019-01-17T15:35:09.105Z,99514.98
2019-01-17T15:37:36.379Z,99524.94
2019-01-17T15:40:06.131Z,99535.26
2019-01-17T15:42:33.299Z,99539.87
2019-01-17T15:45:00.853Z,99545.80
2019-01-17T15:47:28.033Z,99561.13
2019-01-17T15:49:55.213Z,99560.44
2019-01-17T15:52:22.462Z,99568.38
2019-01-17T15:54:49.623Z,99578.61
2019-01-17T15:57:17.005Z,99578.84
2019-01-17T15:59:44.551Z,99582.55
2019-01-17T16:02:11.977Z,99592.27
2019-01-17T16:04:39.179Z,99595.23
2019-01-17T16:07:07.490Z,99597.41
2019-01-17T16:09:34.723Z,99598.14
2019-01-17T16:12:01.939Z,99602.43
2019-01-17T16:14:29.180Z,99613.91
2019-01-17T16:16:56.348Z,99607.43
2019-01-17T16:19:23.568Z,99618.36
2019-01-17T16:21:50.745Z,99625.92
2019-01-17T16:24:17.847Z,99623.44
2019-01-17T16:26:45.008Z,99626.91
2019-01-17T16:29:12.250Z,99632.16
2019-01-17T16:31:39.440Z,99638.09
2019-01-17T16:34:06.622Z,99646.53
2019-01-17T16:36:33.824Z,99658.58
2019-01-17T16:39:00.988Z,99659.38
2019-01-17T16:41:28.204Z,99658.28
2019-01-17T16:43:55.340Z,99665.31
2019-01-17T16:46:22.838Z,99668.13
2019-01-17T16:48:50.044Z,99664.55
2019-01-17T16:51:17.279Z,99685.11
2019-01-17T16:53:44.499Z,99691.26
2019-01-17T16:56:12.000Z,99700.20
2019-01-17T16:58:39.186Z,99709.61
2019-01-17T17:01:06.385Z,99713.89
2019-01-17T17:03:33.562Z,99723.08
2019-01-17T17:06:00.692Z,99723.22
2019-01-17T17:08:27.994Z,99732.80
2019-01-17T17:10:55.205Z,99737.61
2019-01-17T17:13:22.552Z,99731.72
2019-01-17T17:15:49.733Z,99739.55
2019-01-17T17:18:16.936Z,99724.88
2019-01-17T17:20:44.076Z,99731.62
2019-01-17T17:23:11.289Z,99740.63
2019-01-17T17:25:38.691Z,99743.97
2019-01-17T17:28:05.917Z,99754.30
2019-01-17T17:30:33.095Z,99763.03
2019-01-17T17:33:00.268Z,99776.48
2019-01-17T17:35:27.488Z,99785.03
2019-01-17T17:37:54.993Z,99796.08
2019-01-17T17:40:24.452Z,99802.78
2019-01-17T17:42:51.677Z,99819.23
2019-01-17T17:45:19.419Z,99822.92
2019-01-17T17:47:46.509Z,99821.95
2019-01-17T17:50:14.477Z,99827.27
2019-01-17T17:52:41.649Z,99826.66
2019-01-17T17:55:10.198Z,99828.33
2019-01-17T17:57:37.477Z,99846.27
2019-01-17T18:00:08.671Z,99854.38
2019-01-17T18:02:37.741Z,99868.74
2019-01-17T18:05:08.190Z,99870.31
2019-01-17T18:07:35.277Z,99878.23
2019-01-17T18:10:03.334Z,99874.32
2019-01-17T18:12:30.468Z,99869.65
2019-01-17T18:14:57.678Z,99878.23
2019-01-17T18:17:25.102Z,99883.48
2019-01-17T18:19:52.330Z,99874.02
2019-01-17T18:22:19.854Z,99885.84
2019-01-17T18:24:47.065Z,99887.41
2019-01-17T18:27:14.624Z,99873.84
2019-01-17T18:29:41.824Z,99880.38
2019-01-17T18:32:09.449Z,99868.69
2019-01-17T18:34:36.918Z,99873.92
2019-01-17T18:37:04.100Z,99884.84
2019-01-17T18:39:31.292Z,99876.36
2019-01-17T18:41:58.526Z,99888.02
2019-01-17T18:44:25.602Z,99887.53
2019-01-17T18:46:52.799Z,99898.42
2019-01-17T18:49:19.900Z,99903.48
2019-01-17T18:51:47.079Z,99905.24
2019-01-17T18:54:14.219Z,99915.36
2019-01-17T18:56:41.419Z,99922.98
2019-01-17T18:59:08.621Z,99922.98
2019-01-17T19:01:35.838Z,99919.97
2019-01-17T19:04:03.165Z,99931.00
2019-01-17T19:06:31.116Z,99936.92
2019-01-17T19:08:58.335Z,99939.70
2019-01-17T19:11:25.586Z,99953.75
2019-01-17T19:13:52.742Z,99953.05
2019-01-17T19:16:20.037Z,99962.28
2019-01-17T19:18:47.299Z,99961.55
2019-01-17T19:21:14.491Z,99965.00
2019-01-17T19:23:41.879Z,99961.20
2019-01-17T19:26:09.112Z,99963.16
2019-01-17T19:28:36.280Z,99970.41
2019-01-17T19:31:03.696Z,99971.43
2019-01-17T19:33:30.899Z,99970.05
2019-01-17T19:35:57.962Z,99975.67
2019-01-17T19:38:25.168Z,99987.23
2019-01-17T19:40:52.434Z,99990.34
2019-01-17T19:43:19.666Z,100003.27
2019-01-17T19:45:46.871Z,100004.86
2019-01-17T19:48:13.990Z,100012.96
2019-01-17T19:50:41.108Z,100015.91
2019-01-17T19:53:09.062Z,100015.35
2019-01-17T19:55:36.332Z,100020.52
2019-01-17T19:58:03.658Z,100012.34
2019-01-17T20:00:30.878Z,100013.81
2019-01-17T20:02:58.667Z,100018.53
2019-01-17T20:05:27.334Z,100020.38
2019-01-17T20:07:54.900Z,100023.09
2019-01-17T20:10:27.051Z,100021.44
2019-01-17T20:12:54.126Z,100028.13
2019-01-17T20:15:21.425Z,100034.50
2019-01-17T20:17:48.575Z,100035.42
2019-01-17T20:20:16.409Z,100037.66
2019-01-17T20:22:43.612Z,100043.66
2019-01-17T20:25:10.875Z,100041.77
2019-01-17T20:27:38.141Z,100041.08
2019-01-17T20:30:09.724Z,100038.20
2019-01-17T20:32:36.996Z,100045.13
2019-01-17T20:35:04.744Z,100040.48
2019-01-17T20:37:31.955Z,100047.88
2019-01-17T20:39:59.501Z,100049.02
2019-01-17T20:42:26.723Z,100043.75
2019-01-17T20:44:53.921Z,100042.22
2019-01-17T20:47:21.165Z,100049.70
2019-01-17T20:49:48.383Z,100049.67
2019-01-17T20:52:15.656Z,100047.53
2019-01-17T20:54:43.040Z,100053.58
2019-01-17T20:57:11.014Z,100059.05
2019-01-17T20:59:38.065Z,100064.36
2019-01-17T21:02:17.320Z,100075.66
2019-01-17T21:04:44.427Z,100081.45
2019-01-17T21:07:11.888Z,100088.02
2019-01-17T21:09:39.140Z,100084.23
2019-01-17T21:12:06.308Z,100085.91
2019-01-17T21:14:33.544Z,100093.31
2019-01-17T21:17:00.769Z,100086.03
2019-01-17T21:19:27.975Z,100093.91
2019-01-17T21:21:55.183Z,100107.58
2019-01-17T21:24:22.400Z,100111.41
2019-01-17T21:26:49.646Z,100122.89
2019-01-17T21:29:17.086Z,100115.53
2019-01-17T21:31:44.329Z,100121.91
2019-01-17T21:34:11.492Z,100124.33
2019-01-17T21:36:39.018Z,100125.77
2019-01-17T21:39:06.950Z,100134.32
2019-01-17T21:41:34.075Z,100141.33
2019-01-17T21:44:01.249Z,100144.29
2019-01-17T21:46:28.377Z,100141.87
2019-01-17T21:48:55.564Z,100157.03
2019-01-17T21:51:26.410Z,100153.06
2019-01-17T21:53:54.148Z,100152.14
2019-01-17T21:56:21.350Z,100162.23
2019-01-17T21:58:48.872Z,100161.23
2019-01-17T22:01:16.075Z,100167.22
2019-01-17T22:03:43.554Z,100172.08
2019-01-17T22:06:10.754Z,100175.30
2019-01-17T22:08:37.956Z,100181.14
2019-01-17T22:11:05.155Z,100185.77
2019-01-17T22:13:32.628Z,100186.44
2019-01-17T22:15:59.824Z,100180.77
2019-01-17T22:18:27.380Z,100189.20
2019-01-17T22:20:54.558Z,100189.36
2019-01-17T22:23:21.682Z,100190.55
2019-01-17T22:25:48.907Z,100200.30
2019-01-17T22:28:16.554Z,100209.30
2019-01-17T22:30:43.775Z,100214.21
2019-01-17T22:33:10.843Z,100209.20
2019-01-17T22:35:37.933Z,100210.52
2019-01-17T22:38:05.162Z,100219.21
2019-01-17T22:40:32.353Z,100214.26
2019-01-17T22:42:59.528Z,100215.56
2019-01-17T22:45:28.747Z,100228.14
2019-01-17T22:47:55.845Z,100224.69
2019-01-17T22:50:23.037Z,100228.94
2019-01-17T22:52:50.285Z,100242.78
2019-01-17T22:55:17.497Z,100245.53
2019-01-17T22:57:44.991Z,100243.67
2019-01-17T23:00:54.185Z,100251.64
2019-01-17T23:03:39.368Z,100255.67
2019-01-17T23:06:06.602Z,100268.66
2019-01-17T23:08:33.777Z,100262.92
2019-01-17T23:11:01.276Z,100268.66
2019-01-17T23:13:28.502Z,100266.83
2019-01-17T23:15:55.722Z,100263.55
2019-01-17T23:18:23.227Z,100274.54
2019-01-17T23:20:50.659Z,100283.03
2019-01-17T23:23:17.827Z,100283.95
2019-01-17T23:25:44.949Z,100281.20
2019-01-17T23:28:12.135Z,100281.47
2019-01-17T23:30:39.355Z,100284.45
2019-01-17T23:33:06.520Z,100289.96
2019-01-17T23:35:33.886Z,100294.76
2019-01-17T23:38:01.072Z,100306.36
2019-01-17T23:40:28.280Z,100304.98
2019-01-17T23:42:55.521Z,100304.45
2019-01-17T23:45:22.955Z,100308.24
2019-01-17T23:47:50.037Z,100312.98
2019-01-17T23:50:17.226Z,100317.64
2019-01-17T23:52:44.426Z,100311.45
2019-01-17T23:55:11.590Z,100314.90
2019-01-17T23:57:38.808Z,100322.16
